Time;durP1;ratioP1;P1;durP2;ratioP2;P2;SDS_P1;SDS_P2;PMS_P1;PMS_P2;Temp;Humidity;BMP_temperature;BMP_pressure;BME280_temperature;BME280_humidity;BME280_pressure;Samples;Min_cycle;Max_cycle;Signal;HPM_P1;HPM_P2
2024/02/09 00:01:36;;;;;;;7.20;3.77;;;;;;;;;;6211867;23;20416;-86
2024/02/09 00:04:06;;;;;;;8.60;3.27;;;;;;;;;;6216170;23;20408;-86
2024/02/09 00:07:07;;;;;;;5.80;3.40;;;;;;;;;;6218968;23;20504;-84
2024/02/09 00:20:14;;;;;;;11.70;3.70;;;;;;;;;;6178676;23;20599;-85
2024/02/09 00:22:58;;;;;;;9.10;4.00;;;;;;;;;;6185885;23;20400;-85
2024/02/09 00:40:04;;;;;;;8.50;3.03;;;;;;;;;;6138149;22;20463;-87
2024/02/09 00:42:43;;;;;;;7.70;3.63;;;;;;;;;;6235597;23;20431;-86
2024/02/09 00:51:41;;;;;;;9.30;3.87;;;;;;;;;;6206819;23;20459;-87
2024/02/09 00:54:24;;;;;;;10.00;4.70;;;;;;;;;;6185132;23;20516;-87
2024/02/09 00:57:00;;;;;;;8.50;3.60;;;;;;;;;;6183963;23;20436;-84
2024/02/09 00:59:39;;;;;;;9.23;4.10;;;;;;;;;;6183069;23;20429;-88
2024/02/09 01:02:14;;;;;;;9.80;4.67;;;;;;;;;;6179812;23;20427;-86
2024/02/09 01:05:12;;;;;;;8.43;3.23;;;;;;;;;;6036962;23;20401;-87
2024/02/09 01:07:53;;;;;;;7.37;3.83;;;;;;;;;;6055926;23;20457;-86
2024/02/09 02:46:40;;;;;;;8.77;2.80;;;;;;;;;;6208623;23;20413;-87
2024/02/09 03:05:44;;;;;;;5.00;2.53;;;;;;;;;;6216969;23;20502;-84
2024/02/09 03:08:11;;;;;;;4.00;2.20;;;;;;;;;;6198222;23;20453;-85
2024/02/09 03:11:00;;;;;;;5.17;2.53;;;;;;;;;;6177537;23;20923;-85
2024/02/09 03:13:27;;;;;;;5.67;2.77;;;;;;;;;;6175862;23;20402;-85
2024/02/09 03:15:55;;;;;;;4.47;2.10;;;;;;;;;;6178169;23;20398;-85
2024/02/09 03:18:24;;;;;;;6.60;1.80;;;;;;;;;;6176264;23;20421;-84
2024/02/09 03:20:55;;;;;;;3.60;2.03;;;;;;;;;;6204143;23;20433;-85
2024/02/09 03:23:22;;;;;;;3.10;2.27;;;;;;;;;;6179350;23;20476;-85
2024/02/09 03:25:49;;;;;;;5.80;2.17;;;;;;;;;;6179853;23;20416;-86
2024/02/09 03:28:18;;;;;;;4.97;1.90;;;;;;;;;;6178217;23;20442;-86
2024/02/09 03:30:45;;;;;;;3.43;2.00;;;;;;;;;;6178631;23;20422;-86
2024/02/09 03:33:13;;;;;;;3.83;3.33;;;;;;;;;;6203262;23;20440;-85
2024/02/09 03:35:40;;;;;;;3.03;1.77;;;;;;;;;;6177072;23;20413;-87
2024/02/09 03:38:08;;;;;;;2.63;1.63;;;;;;;;;;6204571;23;20421;-85
2024/02/09 03:40:35;;;;;;;5.33;2.03;;;;;;;;;;6202582;23;20433;-86
2024/02/09 03:43:02;;;;;;;3.93;1.80;;;;;;;;;;6207233;23;20431;-86
2024/02/09 03:45:29;;;;;;;2.70;1.80;;;;;;;;;;6234351;23;20389;-85
2024/02/09 03:47:57;;;;;;;2.47;1.57;;;;;;;;;;6234657;23;20440;-85
2024/02/09 03:50:24;;;;;;;3.10;1.53;;;;;;;;;;6234181;23;20433;-86
2024/02/09 03:52:51;;;;;;;1.13;1.00;;;;;;;;;;6187521;23;20479;-85
2024/02/09 03:55:18;;;;;;;4.80;1.30;;;;;;;;;;6187806;23;20415;-85
2024/02/09 03:57:45;;;;;;;1.50;1.40;;;;;;;;;;6187758;23;20893;-85
2024/02/09 04:00:15;;;;;;;1.57;1.20;;;;;;;;;;6212402;23;20465;-84
2024/02/09 04:02:43;;;;;;;2.80;1.83;;;;;;;;;;6184245;23;20390;-86
2024/02/09 04:05:10;;;;;;;3.50;1.40;;;;;;;;;;6185966;23;20415;-84
2024/02/09 04:07:38;;;;;;;3.30;1.73;;;;;;;;;;6213298;23;20433;-86
2024/02/09 04:10:06;;;;;;;2.20;1.30;;;;;;;;;;6211126;23;20431;-86
2024/02/09 04:12:50;;;;;;;2.73;0.97;;;;;;;;;;6210563;23;20414;-86
2024/02/09 04:15:19;;;;;;;1.63;1.03;;;;;;;;;;6187277;23;20518;-85
2024/02/09 04:17:49;;;;;;;1.90;1.37;;;;;;;;;;6211440;23;20390;-85
2024/02/09 04:20:17;;;;;;;3.87;1.07;;;;;;;;;;6185456;23;20429;-85
2024/02/09 04:22:44;;;;;;;2.30;1.33;;;;;;;;;;6208461;23;20460;-86
2024/02/09 04:25:11;;;;;;;1.90;1.33;;;;;;;;;;6184640;23;20521;-86
2024/02/09 04:27:38;;;;;;;2.47;1.40;;;;;;;;;;6182985;23;20405;-86
2024/02/09 04:30:05;;;;;;;2.03;1.40;;;;;;;;;;6182539;23;20428;-86
2024/02/09 04:32:35;;;;;;;2.80;1.37;;;;;;;;;;6182015;23;20413;-85
2024/02/09 04:35:02;;;;;;;2.50;1.30;;;;;;;;;;6185199;23;20410;-87
2024/02/09 04:37:29;;;;;;;2.10;1.37;;;;;;;;;;6208019;23;20420;-86
2024/02/09 04:39:57;;;;;;;4.60;1.73;;;;;;;;;;6182513;23;20472;-85
2024/02/09 04:42:24;;;;;;;4.90;1.60;;;;;;;;;;6203806;23;20484;-85
2024/02/09 04:44:51;;;;;;;1.47;1.33;;;;;;;;;;6180796;23;20413;-85
2024/02/09 04:47:19;;;;;;;2.23;1.40;;;;;;;;;;6181362;23;20406;-85
2024/02/09 04:49:49;;;;;;;2.60;1.37;;;;;;;;;;6209012;23;20449;-85
2024/02/09 04:52:16;;;;;;;1.30;1.07;;;;;;;;;;6207014;23;20397;-86
2024/02/09 04:54:43;;;;;;;2.90;1.60;;;;;;;;;;6186088;23;20413;-87
2024/02/09 04:57:11;;;;;;;2.83;1.20;;;;;;;;;;6182920;23;21334;-86
2024/02/09 04:59:38;;;;;;;1.13;1.03;;;;;;;;;;6183377;23;20441;-86
2024/02/09 05:02:06;;;;;;;6.20;1.40;;;;;;;;;;6180417;23;20424;-85
2024/02/09 05:04:33;;;;;;;3.47;1.40;;;;;;;;;;6207810;23;20537;-85
2024/02/09 05:07:04;;;;;;;2.10;1.17;;;;;;;;;;6207076;23;20436;-85
2024/02/09 05:09:32;;;;;;;7.37;1.90;;;;;;;;;;6181593;23;20896;-85
2024/02/09 05:11:59;;;;;;;1.67;1.27;;;;;;;;;;6180050;23;20422;-85
2024/02/09 05:14:26;;;;;;;2.97;1.13;;;;;;;;;;6179684;23;20420;-85
2024/02/09 05:16:53;;;;;;;1.33;1.17;;;;;;;;;;6180004;23;20398;-85
2024/02/09 05:19:20;;;;;;;5.90;1.57;;;;;;;;;;6206945;23;20440;-84
2024/02/09 05:21:48;;;;;;;2.90;1.47;;;;;;;;;;6169630;23;20476;-85
2024/02/09 05:24:15;;;;;;;1.60;1.20;;;;;;;;;;6201732;23;20485;-85
2024/02/09 05:26:42;;;;;;;1.63;1.53;;;;;;;;;;6182477;23;20413;-85
2024/02/09 05:29:09;;;;;;;1.87;1.50;;;;;;;;;;6180636;23;20946;-85
2024/02/09 05:31:41;;;;;;;2.53;1.30;;;;;;;;;;6179429;23;20417;-84
2024/02/09 05:34:09;;;;;;;2.40;1.47;;;;;;;;;;6180900;23;20469;-86
2024/02/09 05:36:37;;;;;;;2.23;1.03;;;;;;;;;;6182923;23;20410;-85
2024/02/09 05:39:04;;;;;;;3.67;1.40;;;;;;;;;;6210643;23;20432;-86
2024/02/09 05:41:31;;;;;;;2.13;1.20;;;;;;;;;;6180515;23;20412;-86
2024/02/09 05:43:58;;;;;;;5.03;1.93;;;;;;;;;;6178567;23;20421;-85
2024/02/09 05:46:25;;;;;;;2.03;1.47;;;;;;;;;;6181001;23;20410;-85
2024/02/09 05:48:55;;;;;;;2.73;1.40;;;;;;;;;;6210089;23;20514;-86
2024/02/09 05:51:23;;;;;;;1.43;1.20;;;;;;;;;;6181967;23;20467;-86
2024/02/09 05:53:50;;;;;;;1.53;1.27;;;;;;;;;;6181629;23;20767;-87
2024/02/09 05:56:21;;;;;;;1.20;1.10;;;;;;;;;;6207181;23;20417;-85
2024/02/09 05:58:48;;;;;;;1.80;1.63;;;;;;;;;;6180684;23;20413;-87
2024/02/09 06:01:15;;;;;;;2.70;1.20;;;;;;;;;;6208561;23;20476;-87
2024/02/09 06:03:43;;;;;;;7.03;1.60;;;;;;;;;;6208442;23;20524;-86
2024/02/09 06:06:12;;;;;;;2.30;1.53;;;;;;;;;;6210246;23;20499;-87
2024/02/09 06:08:39;;;;;;;3.03;1.30;;;;;;;;;;6181977;23;20470;-85
2024/02/09 06:11:06;;;;;;;3.27;1.97;;;;;;;;;;6182287;23;20733;-86
2024/02/09 06:13:34;;;;;;;1.40;1.20;;;;;;;;;;6180751;23;20412;-85
2024/02/09 06:16:01;;;;;;;1.53;1.00;;;;;;;;;;6183705;23;20451;-85
2024/02/09 06:18:28;;;;;;;3.63;1.47;;;;;;;;;;6183583;23;20435;-84
2024/02/09 06:20:58;;;;;;;3.07;1.43;;;;;;;;;;6186738;23;20493;-87
2024/02/09 06:23:25;;;;;;;1.73;1.40;;;;;;;;;;6182841;23;21305;-87
2024/02/09 06:25:52;;;;;;;7.60;2.90;;;;;;;;;;6182856;23;20413;-86
2024/02/09 06:28:20;;;;;;;4.30;1.67;;;;;;;;;;6181218;23;20553;-87
2024/02/09 06:30:47;;;;;;;4.77;1.40;;;;;;;;;;6183219;23;20869;-87
2024/02/09 06:33:19;;;;;;;3.67;1.70;;;;;;;;;;6209256;23;20416;-86
2024/02/09 06:35:46;;;;;;;3.03;1.93;;;;;;;;;;6212360;23;20759;-87
2024/02/09 06:38:14;;;;;;;5.17;2.10;;;;;;;;;;6185032;23;20477;-87
2024/02/09 06:40:41;;;;;;;5.10;2.13;;;;;;;;;;6208515;23;20931;-86
2024/02/09 06:43:08;;;;;;;3.87;2.03;;;;;;;;;;6208946;23;20409;-86
2024/02/09 06:45:35;;;;;;;4.33;2.50;;;;;;;;;;6181129;23;21240;-86
2024/02/09 06:48:03;;;;;;;3.43;1.83;;;;;;;;;;6182217;23;20425;-86
2024/02/09 06:50:30;;;;;;;8.90;2.90;;;;;;;;;;6208599;23;20450;-86
2024/02/09 06:52:58;;;;;;;4.80;2.50;;;;;;;;;;6208308;23;20465;-87
2024/02/09 06:55:25;;;;;;;7.00;2.73;;;;;;;;;;6208452;23;20409;-87
2024/02/09 06:58:18;;;;;;;2.30;1.50;;;;;;;;;;6182248;23;20511;-87
2024/02/09 07:00:45;;;;;;;5.80;1.27;;;;;;;;;;6161253;23;20531;-85
2024/02/09 07:03:17;;;;;;;0.73;0.73;;;;;;;;;;6180441;23;21410;-87
2024/02/09 07:05:49;;;;;;;1.70;1.07;;;;;;;;;;6182255;23;20526;-87
2024/02/09 07:08:26;;;;;;;0.77;0.77;;;;;;;;;;6209206;23;20421;-89
2024/02/09 07:10:53;;;;;;;1.17;1.07;;;;;;;;;;6185265;23;20506;-87
2024/02/09 07:13:20;;;;;;;2.10;1.30;;;;;;;;;;6207722;23;21354;-85
2024/02/09 07:15:47;;;;;;;1.77;1.20;;;;;;;;;;6173349;23;20412;-84
2024/02/09 07:18:14;;;;;;;0.87;0.70;;;;;;;;;;6175938;23;20420;-85
2024/02/09 07:20:42;;;;;;;2.23;0.90;;;;;;;;;;6176081;23;21436;-84
2024/02/09 07:23:18;;;;;;;1.40;1.30;;;;;;;;;;6175431;23;20421;-87
2024/02/09 07:25:45;;;;;;;2.63;1.07;;;;;;;;;;6179640;23;20451;-86
2024/02/09 07:28:13;;;;;;;1.33;1.07;;;;;;;;;;6179191;23;20448;-87
2024/02/09 07:30:40;;;;;;;1.40;1.30;;;;;;;;;;6204813;23;20522;-86
2024/02/09 07:33:07;;;;;;;2.20;1.47;;;;;;;;;;6180566;23;20415;-85
2024/02/09 07:35:35;;;;;;;3.47;1.50;;;;;;;;;;6207455;23;20417;-87
2024/02/09 07:38:02;;;;;;;2.20;1.03;;;;;;;;;;6182076;23;20428;-85
2024/02/09 07:40:29;;;;;;;2.43;1.40;;;;;;;;;;6181640;23;20444;-85
2024/02/09 07:42:56;;;;;;;3.00;1.80;;;;;;;;;;6207079;23;20488;-86
2024/02/09 07:45:24;;;;;;;1.47;1.10;;;;;;;;;;6208056;23;20418;-86
2024/02/09 07:47:53;;;;;;;2.97;1.30;;;;;;;;;;6209800;23;20408;-85
2024/02/09 07:50:22;;;;;;;3.73;1.43;;;;;;;;;;6210246;23;20475;-86
2024/02/09 07:52:49;;;;;;;2.33;1.40;;;;;;;;;;6211125;23;20463;-84
2024/02/09 07:55:21;;;;;;;2.30;1.80;;;;;;;;;;6225951;23;20412;-85
2024/02/09 07:57:49;;;;;;;2.13;1.93;;;;;;;;;;6216903;23;20529;-84
2024/02/09 08:00:18;;;;;;;4.60;1.77;;;;;;;;;;6210281;23;20434;-85
2024/02/09 08:02:46;;;;;;;3.30;2.40;;;;;;;;;;6201300;23;20415;-85
2024/02/09 08:05:19;;;;;;;3.83;1.70;;;;;;;;;;6177610;23;20429;-85
2024/02/09 08:07:50;;;;;;;3.33;2.10;;;;;;;;;;6177205;23;20955;-85
2024/02/09 08:10:17;;;;;;;1.97;1.60;;;;;;;;;;6180186;23;21003;-86
2024/02/09 08:12:45;;;;;;;2.33;2.17;;;;;;;;;;6180245;23;20410;-86
2024/02/09 08:15:12;;;;;;;2.70;2.07;;;;;;;;;;6182391;23;20449;-86
2024/02/09 08:17:42;;;;;;;3.67;1.53;;;;;;;;;;6208846;23;20449;-86
2024/02/09 08:20:09;;;;;;;5.40;2.20;;;;;;;;;;6181248;23;20516;-85
2024/02/09 08:22:43;;;;;;;3.10;1.60;;;;;;;;;;6180622;23;20411;-85
2024/02/09 08:25:14;;;;;;;3.70;2.10;;;;;;;;;;6181047;23;20929;-84
2024/02/09 08:27:41;;;;;;;3.57;1.70;;;;;;;;;;6207149;23;20745;-85
2024/02/09 08:30:09;;;;;;;2.73;1.60;;;;;;;;;;6208166;23;20457;-84
2024/02/09 08:32:40;;;;;;;1.73;1.40;;;;;;;;;;6182256;23;20417;-84
2024/02/09 08:35:07;;;;;;;4.23;1.40;;;;;;;;;;6182173;23;20405;-84
2024/02/09 08:37:36;;;;;;;2.47;1.33;;;;;;;;;;6182038;23;20402;-85
2024/02/09 08:40:13;;;;;;;4.03;1.60;;;;;;;;;;6208687;23;20564;-85
2024/02/09 08:42:40;;;;;;;2.90;1.60;;;;;;;;;;6207125;23;20417;-86
2024/02/09 08:45:08;;;;;;;2.17;1.50;;;;;;;;;;6208520;23;21054;-84
2024/02/09 08:47:35;;;;;;;4.37;1.83;;;;;;;;;;6209100;23;20409;-87
2024/02/09 08:50:19;;;;;;;;;;;;;;;;;;;;;
2024/02/09 08:53:04;;;;;;;6.40;1.90;;;;;;;;;;6208268;23;20491;-87
2024/02/09 08:58:56;;;;;;;1.30;1.20;;;;;;;;;;6164556;23;20410;-85
2024/02/09 09:01:49;;;;;;;2.03;1.20;;;;;;;;;;6194462;23;20455;-86
2024/02/09 09:04:30;;;;;;;2.50;1.40;;;;;;;;;;6189239;23;20416;-86
2024/02/09 09:07:14;;;;;;;1.30;1.20;;;;;;;;;;6179532;23;20389;-86
2024/02/09 09:09:49;;;;;;;2.70;1.10;;;;;;;;;;6191343;23;20444;-86
2024/02/09 09:12:29;;;;;;;2.37;1.70;;;;;;;;;;6186638;23;20436;-86
2024/02/09 09:15:11;;;;;;;4.10;1.30;;;;;;;;;;6186244;23;20419;-86
2024/02/09 09:17:56;;;;;;;3.77;1.70;;;;;;;;;;6218303;23;20409;-85
2024/02/09 09:20:40;;;;;;;2.37;1.60;;;;;;;;;;6184393;23;20441;-87
2024/02/09 09:23:11;;;;;;;4.73;1.53;;;;;;;;;;6183362;23;20413;-86
2024/02/09 09:25:41;;;;;;;1.47;1.17;;;;;;;;;;6184540;23;20746;-85
2024/02/09 09:28:14;;;;;;;2.30;1.60;;;;;;;;;;6189267;23;20428;-85
2024/02/09 09:30:55;;;;;;;2.33;1.63;;;;;;;;;;6194650;23;20547;-87
2024/02/09 09:33:43;;;;;;;2.53;1.47;;;;;;;;;;6190934;23;20409;-85
2024/02/09 09:36:16;;;;;;;4.43;1.17;;;;;;;;;;6213384;23;20499;-86
2024/02/09 09:38:59;;;;;;;3.30;1.50;;;;;;;;;;6188670;23;20417;-85
2024/02/09 09:41:36;;;;;;;1.47;1.20;;;;;;;;;;6183864;23;20456;-86
2024/02/09 09:44:15;;;;;;;2.67;1.90;;;;;;;;;;6184902;23;20444;-87
2024/02/09 09:46:49;;;;;;;2.63;1.17;;;;;;;;;;6182935;23;20655;-86
2024/02/09 09:49:22;;;;;;;1.60;1.50;;;;;;;;;;6186245;23;20547;-84
2024/02/09 09:51:58;;;;;;;1.30;1.17;;;;;;;;;;6159956;23;20488;-87
2024/02/09 09:54:50;;;;;;;1.90;1.20;;;;;;;;;;6207971;23;20418;-86
2024/02/09 09:57:25;;;;;;;1.60;1.37;;;;;;;;;;6211471;23;20437;-85
2024/02/09 10:00:09;;;;;;;2.40;1.53;;;;;;;;;;6176958;23;20512;-85
2024/02/09 10:02:44;;;;;;;1.77;1.63;;;;;;;;;;6159702;23;20468;-88
2024/02/09 10:05:19;;;;;;;2.20;1.97;;;;;;;;;;6185108;23;20408;-86
2024/02/09 10:08:04;;;;;;;3.03;1.87;;;;;;;;;;6192866;23;20440;-87
2024/02/09 10:10:37;;;;;;;2.67;2.20;;;;;;;;;;6185964;23;20451;-84
2024/02/09 10:16:15;;;;;;;2.77;2.57;;;;;;;;;;6211842;23;20433;-85
2024/02/09 10:18:45;;;;;;;3.43;2.60;;;;;;;;;;6203590;23;20389;-87
2024/02/09 10:21:26;;;;;;;3.43;2.03;;;;;;;;;;6205076;23;20394;-87
2024/02/09 10:23:57;;;;;;;2.63;1.83;;;;;;;;;;6232654;23;20409;-85
2024/02/09 10:26:52;;;;;;;3.10;2.33;;;;;;;;;;6231733;23;20421;-85
2024/02/09 10:29:38;;;;;;;3.93;2.70;;;;;;;;;;6198104;23;21012;-86
2024/02/09 10:32:10;;;;;;;9.07;2.10;;;;;;;;;;6189746;23;20496;-84
2024/02/09 10:34:41;;;;;;;3.13;2.83;;;;;;;;;;6190832;23;20409;-85
2024/02/09 10:37:10;;;;;;;8.70;2.80;;;;;;;;;;6186206;23;20444;-85
2024/02/09 10:39:51;;;;;;;3.43;2.77;;;;;;;;;;6194295;23;20504;-86
2024/02/09 10:42:24;;;;;;;3.30;2.30;;;;;;;;;;6200562;23;20416;-86
2024/02/09 10:45:14;;;;;;;6.77;2.80;;;;;;;;;;6195885;23;20413;-87
2024/02/09 10:47:55;;;;;;;4.43;3.20;;;;;;;;;;6214440;23;20398;-85
2024/02/09 10:50:36;;;;;;;3.00;2.30;;;;;;;;;;6190629;23;20983;-85
2024/02/09 10:53:12;;;;;;;3.30;2.17;;;;;;;;;;6215365;23;20469;-87
2024/02/09 10:55:45;;;;;;;3.20;2.40;;;;;;;;;;6216666;23;20480;-87
2024/02/09 10:58:33;;;;;;;2.93;2.27;;;;;;;;;;6218358;23;20385;-85
2024/02/09 11:01:14;;;;;;;6.50;2.90;;;;;;;;;;6220827;23;20534;-86
2024/02/09 11:03:56;;;;;;;;;;;;;;;;;;;;;
2024/02/09 11:06:28;;;;;;;3.50;2.20;;;;;;;;;;6230006;23;20399;-85
2024/02/09 11:09:05;;;;;;;3.27;2.50;;;;;;;;;;6195082;23;20485;-85
2024/02/09 11:11:33;;;;;;;6.23;2.93;;;;;;;;;;6191395;23;20557;-86
2024/02/09 11:17:29;;;;;;;4.20;3.20;;;;;;;;;;6209918;23;20429;-86
2024/02/09 11:20:37;;;;;;;5.30;3.60;;;;;;;;;;6196697;23;20436;-88
2024/02/09 11:23:51;;;;;;;2.93;2.63;;;;;;;;;;6189349;23;20402;-86
2024/02/09 11:27:02;;;;;;;5.13;3.00;;;;;;;;;;6193040;23;21005;-85
2024/02/09 11:29:51;;;;;;;4.73;2.77;;;;;;;;;;6118786;23;20460;-85
2024/02/09 11:32:45;;;;;;;3.53;2.47;;;;;;;;;;6126491;23;20577;-87
2024/02/09 11:35:45;;;;;;;3.47;2.60;;;;;;;;;;6152857;23;20482;-87
2024/02/09 11:38:25;;;;;;;4.80;3.20;;;;;;;;;;6130392;23;20419;-86
2024/02/09 11:44:43;;;;;;;3.43;2.90;;;;;;;;;;6152578;23;20408;-86
2024/02/09 11:47:54;;;;;;;2.00;1.83;;;;;;;;;;6140131;23;20789;-88
2024/02/09 11:50:44;;;;;;;5.27;2.13;;;;;;;;;;6151334;23;20898;-86
2024/02/09 11:53:34;;;;;;;3.20;1.97;;;;;;;;;;6160776;23;20723;-87
2024/02/09 11:59:45;;;;;;;4.10;1.90;;;;;;;;;;6158317;23;20443;-84
2024/02/09 12:02:31;;;;;;;2.80;1.97;;;;;;;;;;6163070;23;20413;-86
2024/02/09 12:05:50;;;;;;;2.03;1.83;;;;;;;;;;6216461;23;20369;-86
2024/02/09 12:08:40;;;;;;;2.90;2.00;;;;;;;;;;6192337;23;20444;-87
2024/02/09 12:11:36;;;;;;;3.47;1.90;;;;;;;;;;6179683;23;20455;-87
2024/02/09 12:14:38;;;;;;;5.37;2.97;;;;;;;;;;6189543;23;20468;-84
2024/02/09 12:17:30;;;;;;;4.30;2.90;;;;;;;;;;6192192;23;20386;-88
2024/02/09 12:20:44;;;;;;;3.20;2.20;;;;;;;;;;6188359;23;20495;-88
2024/02/09 12:29:51;;;;;;;3.73;3.23;;;;;;;;;;6198284;23;20451;-87
2024/02/09 12:32:38;;;;;;;3.53;2.70;;;;;;;;;;6195862;23;20409;-86
2024/02/09 12:35:50;;;;;;;2.80;1.80;;;;;;;;;;6195586;23;20394;-86
2024/02/09 12:38:45;;;;;;;3.67;2.97;;;;;;;;;;6196300;23;20842;-85
2024/02/09 12:41:40;;;;;;;4.90;4.40;;;;;;;;;;6194204;23;20729;-85
2024/02/09 12:44:18;;;;;;;3.67;2.70;;;;;;;;;;6188634;23;20549;-85
2024/02/09 12:47:24;;;;;;;2.13;1.63;;;;;;;;;;6209403;23;20445;-86
2024/02/09 12:50:12;;;;;;;2.87;2.47;;;;;;;;;;6181843;23;20453;-86
2024/02/09 12:53:04;;;;;;;5.50;2.80;;;;;;;;;;6176720;23;20877;-85
2024/02/09 12:55:47;;;;;;;2.00;1.80;;;;;;;;;;6185366;23;21510;-85
2024/02/09 12:58:51;;;;;;;2.63;2.27;;;;;;;;;;6187610;23;20421;-86
2024/02/09 13:02:07;;;;;;;2.93;2.60;;;;;;;;;;6182725;23;20424;-85
2024/02/09 13:04:58;;;;;;;3.77;2.83;;;;;;;;;;6185564;23;20434;-86
2024/02/09 13:07:57;;;;;;;5.03;2.60;;;;;;;;;;6190413;23;20889;-85
2024/02/09 13:10:40;;;;;;;4.30;3.90;;;;;;;;;;6187374;23;20476;-87
2024/02/09 13:13:40;;;;;;;5.20;4.47;;;;;;;;;;6187103;23;20493;-87
2024/02/09 13:16:21;;;;;;;6.80;4.70;;;;;;;;;;6182315;23;20421;-88
2024/02/09 13:19:08;;;;;;;4.40;4.10;;;;;;;;;;6185977;23;20444;-86
2024/02/09 13:21:44;;;;;;;3.90;3.50;;;;;;;;;;6207265;23;20472;-88
2024/02/09 13:24:20;;;;;;;3.93;3.13;;;;;;;;;;6183090;23;20401;-86
2024/02/09 13:27:14;;;;;;;3.10;2.90;;;;;;;;;;6179438;23;20974;-86
2024/02/09 13:30:19;;;;;;;;;;;;;;;;;;;;;
2024/02/09 13:33:25;;;;;;;4.20;2.93;;;;;;;;;;6215094;23;20508;-84
2024/02/09 13:36:30;;;;;;;2.73;1.83;;;;;;;;;;6186907;23;20442;-85
2024/02/09 13:39:26;;;;;;;2.57;1.73;;;;;;;;;;6191176;23;20417;-83
2024/02/09 13:42:26;;;;;;;3.07;2.33;;;;;;;;;;6180500;23;20468;-85
2024/02/09 13:45:04;;;;;;;2.30;1.63;;;;;;;;;;6170942;23;20413;-85
2024/02/09 13:48:06;;;;;;;;;;;;;;;;;;;;;
2024/02/09 13:51:05;;;;;;;2.53;2.17;;;;;;;;;;6207941;23;20448;-86
2024/02/09 13:54:23;;;;;;;1.60;1.50;;;;;;;;;;6183724;23;20406;-87
2024/02/09 13:59:50;;;;;;;2.00;1.70;;;;;;;;;;6210324;23;20493;-87
2024/02/09 14:02:55;;;;;;;3.63;2.07;;;;;;;;;;6191791;23;20799;-86
2024/02/09 14:05:47;;;;;;;2.10;1.73;;;;;;;;;;6189279;23;20405;-86
2024/02/09 14:08:32;;;;;;;5.80;1.70;;;;;;;;;;6188705;23;20934;-86
2024/02/09 14:11:18;;;;;;;2.97;1.70;;;;;;;;;;6162748;23;20469;-86
2024/02/09 14:14:00;;;;;;;2.43;1.53;;;;;;;;;;6166215;23;20413;-87
2024/02/09 14:17:19;;;;;;;3.80;1.47;;;;;;;;;;6119559;23;20404;-85
2024/02/09 14:20:37;;;;;;;;;;;;;;;;;;;;;
2024/02/09 14:23:23;;;;;;;3.70;1.50;;;;;;;;;;6197675;23;20409;-84
2024/02/09 14:26:19;;;;;;;2.10;1.87;;;;;;;;;;6181333;23;20497;-85
2024/02/09 14:29:05;;;;;;;2.63;1.83;;;;;;;;;;6188337;23;20405;-86
2024/02/09 14:32:10;;;;;;;1.73;1.63;;;;;;;;;;6188526;23;20476;-86
2024/02/09 14:34:57;;;;;;;2.10;1.40;;;;;;;;;;6176974;23;20508;-85
2024/02/09 14:40:31;;;;;;;1.10;1.10;;;;;;;;;;6211133;23;20990;-86
2024/02/09 14:43:37;;;;;;;9.40;2.00;;;;;;;;;;6184466;23;20467;-88
2024/02/09 14:49:50;;;;;;;2.00;1.70;;;;;;;;;;6207552;23;20409;-86
2024/02/09 14:52:46;;;;;;;1.60;1.37;;;;;;;;;;6181178;23;20409;-85
2024/02/09 14:56:00;;;;;;;3.40;1.70;;;;;;;;;;6169597;23;20398;-86
2024/02/09 14:58:56;;;;;;;2.07;1.83;;;;;;;;;;6171938;23;20952;-86
2024/02/09 15:02:00;;;;;;;1.90;1.80;;;;;;;;;;6062057;23;21188;-85
2024/02/09 15:04:42;;;;;;;1.50;1.40;;;;;;;;;;6083782;23;20441;-85
2024/02/09 15:07:42;;;;;;;1.70;1.60;;;;;;;;;;6086051;23;20429;-84
2024/02/09 15:10:21;;;;;;;2.27;1.70;;;;;;;;;;6086305;23;20436;-84
2024/02/09 15:12:55;;;;;;;4.47;1.90;;;;;;;;;;6085219;23;20440;-85
2024/02/09 15:15:49;;;;;;;3.20;2.07;;;;;;;;;;6086473;23;20508;-86
2024/02/09 15:18:50;;;;;;;2.10;1.90;;;;;;;;;;6086511;23;20408;-85
2024/02/09 15:21:24;;;;;;;4.33;2.60;;;;;;;;;;6087204;23;20512;-86
2024/02/09 15:24:00;;;;;;;6.50;3.20;;;;;;;;;;6087077;23;20408;-85
2024/02/09 15:26:35;;;;;;;3.27;2.80;;;;;;;;;;6091993;23;20457;-84
2024/02/09 15:29:16;;;;;;;2.27;2.10;;;;;;;;;;6091287;23;20444;-86
2024/02/09 15:31:52;;;;;;;2.53;2.33;;;;;;;;;;6148392;23;20511;-88
2024/02/09 15:34:31;;;;;;;3.17;2.13;;;;;;;;;;6188794;23;20413;-85
2024/02/09 15:37:30;;;;;;;3.60;1.83;;;;;;;;;;6189550;23;20405;-86
2024/02/09 15:40:04;;;;;;;4.27;2.20;;;;;;;;;;6209860;23;20433;-85
2024/02/09 15:43:12;;;;;;;2.30;1.87;;;;;;;;;;6185252;23;20420;-86
2024/02/09 15:46:18;;;;;;;4.70;1.87;;;;;;;;;;6147517;23;20402;-86
2024/02/09 15:49:02;;;;;;;1.97;1.83;;;;;;;;;;6180396;23;20402;-86
2024/02/09 15:51:40;;;;;;;2.80;2.03;;;;;;;;;;6191677;23;20475;-85
2024/02/09 15:54:13;;;;;;;5.30;3.00;;;;;;;;;;6190106;23;20404;-84
2024/02/09 15:57:00;;;;;;;2.83;2.63;;;;;;;;;;6187261;23;20449;-85
2024/02/09 15:59:39;;;;;;;4.00;2.17;;;;;;;;;;6211884;23;20433;-87
2024/02/09 16:02:34;;;;;;;;;;;;;;;;;;;;;
2024/02/09 16:05:19;;;;;;;2.33;2.13;;;;;;;;;;6208760;23;20425;-87
2024/02/09 16:08:07;;;;;;;5.87;2.30;;;;;;;;;;6186544;23;20465;-86
2024/02/09 16:10:52;;;;;;;2.90;1.90;;;;;;;;;;6192572;23;20459;-87
2024/02/09 16:13:34;;;;;;;3.63;2.40;;;;;;;;;;6187038;23;20428;-86
2024/02/09 16:16:24;;;;;;;5.87;2.20;;;;;;;;;;6184872;23;20488;-86
2024/02/09 16:19:10;;;;;;;3.20;2.30;;;;;;;;;;6184803;23;20409;-83
2024/02/09 16:21:54;;;;;;;3.20;2.27;;;;;;;;;;6184294;23;20435;-86
2024/02/09 16:25:00;;;;;;;3.37;2.60;;;;;;;;;;6160929;23;20436;-86
2024/02/09 16:27:44;;;;;;;6.30;2.87;;;;;;;;;;6208944;23;20497;-86
2024/02/09 16:30:23;;;;;;;3.90;3.10;;;;;;;;;;6180659;23;20829;-87
2024/02/09 16:32:55;;;;;;;2.90;2.23;;;;;;;;;;6176977;23;20410;-85
2024/02/09 16:35:54;;;;;;;3.33;1.87;;;;;;;;;;6182074;23;20409;-85
2024/02/09 16:38:40;;;;;;;2.80;2.20;;;;;;;;;;6184439;23;20464;-84
2024/02/09 16:41:30;;;;;;;2.03;1.90;;;;;;;;;;6164932;23;20418;-85
2024/02/09 16:44:08;;;;;;;4.57;2.20;;;;;;;;;;6227460;23;20678;-87
2024/02/09 16:46:53;;;;;;;6.97;1.90;;;;;;;;;;6205656;23;20505;-89
2024/02/09 16:49:30;;;;;;;2.90;2.07;;;;;;;;;;6209902;23;20428;-87
2024/02/09 16:52:06;;;;;;;4.00;2.57;;;;;;;;;;6207109;23;20457;-86
2024/02/09 16:54:45;;;;;;;3.17;1.53;;;;;;;;;;6210519;23;20394;-86
2024/02/09 16:57:21;;;;;;;1.70;1.60;;;;;;;;;;6208487;23;20409;-86
2024/02/09 16:59:57;;;;;;;2.87;2.17;;;;;;;;;;6220480;23;20664;-86
2024/02/09 17:02:33;;;;;;;2.90;1.70;;;;;;;;;;6193612;23;20710;-85
2024/02/09 17:05:14;;;;;;;4.80;2.10;;;;;;;;;;6195771;23;20417;-88
2024/02/09 17:08:06;;;;;;;6.07;2.60;;;;;;;;;;6193575;23;20432;-85
2024/02/09 17:11:01;;;;;;;4.70;2.13;;;;;;;;;;6193204;23;20444;-86
2024/02/09 17:13:45;;;;;;;3.93;2.70;;;;;;;;;;6190935;23;20463;-86
2024/02/09 17:16:23;;;;;;;7.53;2.80;;;;;;;;;;6190889;23;20410;-86
2024/02/09 17:19:46;;;;;;;3.53;2.17;;;;;;;;;;6194700;23;20440;-86
2024/02/09 17:22:44;;;;;;;3.47;3.07;;;;;;;;;;6192349;23;20493;-86
2024/02/09 17:25:25;;;;;;;4.30;2.27;;;;;;;;;;6214695;23;20422;-88
2024/02/09 17:28:04;;;;;;;3.03;2.30;;;;;;;;;;6188480;23;20417;-87
2024/02/09 17:33:52;;;;;;;5.27;2.23;;;;;;;;;;6196805;23;20401;-88
2024/02/09 17:36:34;;;;;;;3.60;1.80;;;;;;;;;;6193068;23;20405;-86
2024/02/09 17:39:13;;;;;;;7.13;2.17;;;;;;;;;;6200801;23;20417;-85
2024/02/09 17:42:01;;;;;;;2.50;2.30;;;;;;;;;;6198301;23;20405;-84
2024/02/09 17:45:14;;;;;;;3.77;2.10;;;;;;;;;;6183606;23;20436;-84
2024/02/09 17:47:44;;;;;;;2.27;2.17;;;;;;;;;;6180308;23;20412;-85
2024/02/09 17:50:47;;;;;;;4.70;2.40;;;;;;;;;;6198862;23;21267;-88
2024/02/09 17:53:46;;;;;;;2.50;2.27;;;;;;;;;;6203334;23;20455;-86
2024/02/09 17:56:27;;;;;;;7.47;3.03;;;;;;;;;;6216523;23;20408;-87
2024/02/09 17:59:17;;;;;;;3.03;2.30;;;;;;;;;;6210606;23;20816;-85
2024/02/09 18:05:36;;;;;;;3.40;2.00;;;;;;;;;;6094125;23;20408;-83
2024/02/09 18:08:22;;;;;;;4.67;2.40;;;;;;;;;;6220019;23;20435;-85
2024/02/09 18:11:09;;;;;;;4.13;1.90;;;;;;;;;;6211773;23;20444;-86
2024/02/09 18:13:45;;;;;;;4.60;1.93;;;;;;;;;;6214231;23;20412;-85
2024/02/09 18:16:37;;;;;;;3.00;2.00;;;;;;;;;;6241290;23;21240;-85
2024/02/09 18:19:09;;;;;;;5.37;3.87;;;;;;;;;;6213894;23;20503;-87
2024/02/09 18:21:49;;;;;;;2.80;2.50;;;;;;;;;;6212173;23;20501;-85
2024/02/09 18:24:31;;;;;;;4.53;2.70;;;;;;;;;;6244888;23;20408;-86
2024/02/09 18:27:08;;;;;;;4.90;2.43;;;;;;;;;;6215095;23;20530;-87
2024/02/09 18:32:58;;;;;;;4.77;2.70;;;;;;;;;;6247602;23;20435;-87
2024/02/09 18:46:44;;;;;;;5.17;2.87;;;;;;;;;;6004498;23;20428;-85
2024/02/09 18:49:32;;;;;;;5.33;2.77;;;;;;;;;;6119097;23;20435;-86
2024/02/09 18:52:07;;;;;;;6.07;3.27;;;;;;;;;;6094460;23;20498;-86
2024/02/09 18:54:54;;;;;;;3.57;2.60;;;;;;;;;;6098126;23;20428;-88
2024/02/09 18:57:43;;;;;;;3.90;2.63;;;;;;;;;;6095455;23;20423;-85
2024/02/09 19:00:19;;;;;;;3.40;2.73;;;;;;;;;;6096649;23;20521;-84
2024/02/09 19:02:57;;;;;;;4.87;3.83;;;;;;;;;;6095523;23;20418;-86
2024/02/09 19:05:33;;;;;;;3.97;2.47;;;;;;;;;;6098451;23;20690;-86
2024/02/09 19:09:04;;;;;;;3.67;3.37;;;;;;;;;;6098669;23;20458;-85
2024/02/09 19:12:14;;;;;;;4.63;2.90;;;;;;;;;;5979032;23;20444;-85
2024/02/09 19:15:48;;;;;;;6.10;3.10;;;;;;;;;;6123250;23;20450;-87
2024/02/09 19:18:21;;;;;;;5.70;3.20;;;;;;;;;;6089347;23;20476;-86
2024/02/09 19:21:13;;;;;;;4.80;3.60;;;;;;;;;;6213452;23;20938;-85
2024/02/09 19:27:44;;;;;;;;;;;;;;;;;;;;;